createdAt,value
2018-11-07T00:04:02.214Z,61.76
2018-11-07T00:09:05.626Z,61.57
2018-11-07T00:14:09.130Z,61.39
2018-11-07T01:45:58.164Z,61.48
2018-11-07T01:51:02.249Z,61.59
2018-11-07T01:56:05.582Z,61.80
2018-11-07T03:33:11.934Z,62.82
2018-11-07T03:38:15.266Z,62.75
2018-11-07T03:43:18.591Z,63.04
2018-11-07T04:45:58.563Z,62.42
2018-11-07T04:51:01.884Z,62.79
2018-11-07T04:56:05.983Z,62.74
2018-11-07T05:35:39.263Z,62.43
2018-11-07T05:40:42.584Z,62.48
2018-11-07T05:45:46.672Z,62.51
2018-11-07T05:50:49.997Z,62.45
2018-11-07T05:55:53.318Z,62.24
2018-11-07T06:00:56.638Z,62.28
2018-11-07T06:05:59.975Z,62.25
2018-11-07T06:11:04.064Z,62.14
2018-11-07T06:16:13.159Z,62.31
2018-11-07T06:21:16.418Z,62.03
2018-11-07T06:26:19.737Z,62.09
2018-11-07T06:31:23.072Z,62.08
2018-11-07T06:36:26.395Z,62.10
2018-11-07T06:41:30.499Z,62.13
2018-11-07T06:46:34.206Z,61.80
2018-11-07T06:51:37.677Z,61.59
2018-11-07T06:56:41.947Z,61.81
2018-11-07T07:01:45.266Z,62.10
2018-11-07T07:06:48.866Z,61.66
2018-11-07T07:11:52.197Z,61.68
2018-11-07T07:16:55.514Z,61.78
2018-11-07T07:21:59.222Z,61.70
2018-11-07T07:27:02.753Z,61.76
2018-11-07T08:00:56.807Z,62.25
2018-11-07T08:06:00.139Z,62.56
2018-11-07T08:11:04.243Z,62.55
2018-11-07T09:02:07.967Z,62.23
2018-11-07T09:07:12.242Z,61.90
2018-11-07T09:12:15.845Z,61.68
2018-11-07T10:03:20.583Z,59.31
2018-11-07T10:08:24.695Z,58.96
2018-11-07T10:13:28.036Z,59.16
2018-11-07T11:04:31.994Z,56.50
2018-11-07T11:09:35.374Z,54.91
2018-11-07T11:14:38.710Z,55.81
2018-11-07T12:05:43.475Z,50.95
2018-11-07T12:10:46.804Z,49.94
2018-11-07T13:01:51.531Z,46.07
2018-11-07T13:06:54.860Z,46.53
2018-11-07T13:11:58.187Z,46.49
2018-11-07T14:03:02.687Z,39.32
2018-11-07T14:08:06.023Z,39.25
2018-11-07T14:13:09.351Z,39.00
2018-11-07T15:04:13.610Z,38.76
2018-11-07T15:09:16.942Z,40.54
2018-11-07T15:14:20.270Z,41.42
2018-11-07T15:48:10.020Z,49.63
2018-11-07T15:53:13.355Z,49.75
2018-11-07T15:58:19.235Z,51.71
2018-11-07T16:32:09.653Z,59.33
2018-11-07T16:37:12.980Z,60.11
2018-11-07T16:42:16.321Z,60.65
2018-11-07T16:47:20.498Z,60.13
2018-11-07T16:52:24.616Z,61.64
2018-11-07T16:57:27.963Z,61.00
2018-11-07T17:02:31.300Z,63.25
2018-11-07T17:07:34.636Z,64.68
2018-11-07T17:12:38.029Z,64.82
2018-11-07T17:17:41.348Z,66.98
2018-11-07T17:22:45.443Z,65.92
2018-11-07T17:27:48.787Z,66.94
2018-11-07T17:32:52.895Z,66.88
2018-11-07T17:37:56.236Z,65.41
2018-11-07T17:43:00.335Z,66.57
2018-11-07T17:48:03.757Z,65.31
2018-11-07T17:53:07.041Z,64.83
2018-11-07T17:58:18.746Z,64.50
2018-11-07T18:03:22.088Z,62.40
2018-11-07T18:08:25.436Z,61.95
2018-11-07T18:13:29.551Z,60.81
2018-11-07T18:18:33.665Z,60.21
2018-11-07T18:23:37.003Z,59.83
2018-11-07T18:28:41.104Z,59.90
2018-11-07T18:33:44.443Z,60.20
2018-11-07T18:38:48.671Z,60.37
2018-11-07T18:43:52.782Z,60.85
2018-11-07T18:48:59.772Z,61.29
2018-11-07T18:54:03.106Z,61.12
2018-11-07T18:59:06.447Z,62.60
2018-11-07T19:04:09.799Z,63.50
2018-11-07T19:09:13.126Z,64.54
2018-11-07T19:14:16.482Z,62.91
2018-11-07T19:19:20.596Z,62.94
2018-11-07T19:24:23.943Z,63.12
2018-11-07T19:29:27.283Z,65.66
2018-11-07T19:34:30.628Z,66.02
2018-11-07T19:39:33.968Z,65.99
2018-11-07T19:44:37.308Z,64.82
2018-11-07T19:49:40.648Z,64.36
2018-11-07T19:54:43.990Z,64.06
2018-11-07T19:59:48.097Z,63.45
2018-11-07T20:04:51.430Z,63.59
2018-11-07T20:09:55.531Z,64.03
2018-11-07T20:14:58.867Z,65.84
2018-11-07T20:20:02.209Z,65.36
2018-11-07T20:25:05.611Z,66.32
2018-11-07T20:30:09.723Z,65.96
2018-11-07T20:35:13.056Z,66.25
2018-11-07T20:40:16.413Z,66.04
2018-11-07T20:45:19.763Z,65.44
2018-11-07T20:50:23.102Z,66.79
2018-11-07T20:55:26.449Z,67.87
2018-11-07T21:00:29.775Z,68.17
2018-11-07T21:05:33.110Z,67.96
2018-11-07T21:10:36.465Z,67.40
2018-11-07T21:15:39.811Z,67.53
2018-11-07T21:20:43.153Z,68.36
2018-11-07T21:25:47.257Z,66.46
2018-11-07T21:30:50.639Z,66.41
2018-11-07T21:35:54.729Z,66.26
2018-11-07T21:40:58.061Z,66.09
2018-11-07T21:46:01.399Z,68.25
2018-11-07T21:51:04.750Z,66.94
2018-11-07T21:56:08.092Z,67.89
2018-11-07T22:01:14.049Z,67.16
2018-11-07T22:06:18.210Z,66.48
2018-11-07T22:11:22.333Z,65.70
2018-11-07T22:16:45.695Z,64.83
2018-11-07T22:21:49.033Z,64.67
2018-11-07T22:26:53.127Z,64.67
2018-11-07T22:31:56.460Z,64.59
2018-11-07T22:36:59.798Z,64.69
2018-11-07T22:42:03.123Z,64.83
2018-11-07T22:47:28.334Z,65.56
2018-11-07T22:52:32.539Z,65.46
2018-11-07T22:57:41.673Z,65.74
2018-11-07T23:02:45.010Z,65.78
2018-11-07T23:07:48.349Z,65.99
2018-11-07T23:12:51.779Z,65.90
2018-11-07T23:17:55.119Z,65.88
2018-11-07T23:22:58.444Z,65.73
2018-11-07T23:28:12.474Z,65.33
2018-11-07T23:33:15.804Z,65.14
2018-11-07T23:38:36.562Z,65.10
2018-11-07T23:43:39.911Z,65.38
2018-11-07T23:48:43.251Z,65.26
2018-11-07T23:53:46.579Z,65.74
2018-11-07T23:58:49.911Z,66.46
